Time;durP1;ratioP1;P1;durP2;ratioP2;P2;SDS_P1;SDS_P2;PMS_P1;PMS_P2;Temp;Humidity;BMP_temperature;BMP_pressure;BME280_temperature;BME280_humidity;BME280_pressure;Samples;Min_cycle;Max_cycle;Signal;HPM_P1;HPM_P2
2023/10/01 00:00:08;;;;;;;12.75;5.38;;;16.70;57.70;;;;;;5079378;28;20070;-40
2023/10/01 00:02:36;;;;;;;10.73;5.05;;;16.70;57.70;;;;;;5077493;28;20495;-40
2023/10/01 00:05:05;;;;;;;11.07;5.97;;;16.70;57.70;;;;;;5079155;28;20063;-39
2023/10/01 00:07:37;;;;;;;12.00;5.95;;;16.70;57.70;;;;;;5078497;28;20044;-40
2023/10/01 00:10:10;;;;;;;13.07;5.95;;;16.70;57.80;;;;;;5079894;28;20058;-39
2023/10/01 00:12:39;;;;;;;15.65;5.93;;;16.60;57.80;;;;;;5079592;28;20048;-40
2023/10/01 00:15:10;;;;;;;10.70;5.78;;;16.70;57.80;;;;;;5081825;28;20258;-40
2023/10/01 00:17:38;;;;;;;12.60;5.93;;;16.60;57.80;;;;;;5083494;28;20066;-39
2023/10/01 00:20:14;;;;;;;9.55;5.80;;;16.60;57.90;;;;;;5081145;28;20070;-41
2023/10/01 00:22:41;;;;;;;13.75;5.80;;;16.60;57.90;;;;;;5082264;28;20659;-39
2023/10/01 00:25:10;;;;;;;10.90;6.20;;;16.60;57.90;;;;;;5084130;28;20052;-41
2023/10/01 00:27:38;;;;;;;11.23;6.15;;;16.60;57.90;;;;;;5084198;28;20055;-39
2023/10/01 00:30:08;;;;;;;11.43;6.13;;;16.60;57.90;;;;;;5082831;28;20056;-39
2023/10/01 00:32:36;;;;;;;11.38;6.43;;;16.60;57.90;;;;;;5079733;28;20040;-40
2023/10/01 00:35:04;;;;;;;11.00;6.38;;;16.60;58.00;;;;;;5083988;28;20048;-39
2023/10/01 00:37:32;;;;;;;12.25;6.18;;;16.50;57.90;;;;;;5084524;28;20063;-39
2023/10/01 00:39:59;;;;;;;12.13;5.75;;;16.50;57.90;;;;;;5083902;28;20047;-41
2023/10/01 00:42:28;;;;;;;11.68;6.32;;;16.50;57.90;;;;;;5081033;28;20138;-39
2023/10/01 00:44:57;;;;;;;12.65;5.80;;;16.50;57.90;;;;;;5082007;28;20051;-39
2023/10/01 00:47:27;;;;;;;11.68;6.70;;;16.50;57.90;;;;;;5082477;28;20051;-39
2023/10/01 00:49:58;;;;;;;11.32;6.25;;;16.50;57.90;;;;;;5082831;28;20048;-39
2023/10/01 00:52:26;;;;;;;13.70;7.05;;;16.50;57.90;;;;;;5082373;28;20048;-39
2023/10/01 00:54:54;;;;;;;11.57;5.85;;;16.50;57.90;;;;;;5084059;28;20079;-39
2023/10/01 00:57:22;;;;;;;10.27;5.47;;;16.50;57.90;;;;;;5083267;28;20056;-41
2023/10/01 00:59:51;;;;;;;11.43;6.25;;;16.50;57.90;;;;;;5081899;28;20498;-39
2023/10/01 01:02:19;;;;;;;11.23;5.88;;;16.40;57.80;;;;;;5080994;28;20059;-39
2023/10/01 01:05:19;;;;;;;11.85;5.97;;;16.50;57.90;;;;;;5081886;28;20044;-39
2023/10/01 01:07:36;;;;;;;13.20;7.15;;;16.40;57.80;;;;;;5083530;28;20056;-41
2023/10/01 01:10:39;;;;;;;10.90;6.20;;;16.40;57.80;;;;;;5080079;28;20555;-39
2023/10/01 01:13:06;;;;;;;12.70;7.13;;;16.40;57.90;;;;;;5081960;28;20059;-39
2023/10/01 01:15:36;;;;;;;12.60;6.90;;;16.40;57.80;;;;;;5082291;28;20496;-40
2023/10/01 01:18:06;;;;;;;12.13;6.60;;;16.40;57.90;;;;;;5081398;28;20389;-40
2023/10/01 01:20:36;;;;;;;11.48;6.20;;;16.40;57.80;;;;;;5081746;28;20048;-39
2023/10/01 01:23:08;;;;;;;12.05;6.88;;;16.30;57.80;;;;;;5082162;28;21439;-39
2023/10/01 01:25:36;;;;;;;14.70;6.43;;;16.30;57.90;;;;;;5081393;28;20055;-41
2023/10/01 01:28:12;;;;;;;10.68;5.78;;;16.30;57.90;;;;;;5082305;28;20059;-39
2023/10/01 01:30:43;;;;;;;11.55;6.10;;;16.20;57.80;;;;;;5081071;28;20487;-39
2023/10/01 01:33:12;;;;;;;13.95;6.53;;;16.30;57.80;;;;;;5079494;28;20048;-39
2023/10/01 01:35:42;;;;;;;8.82;6.13;;;16.30;57.80;;;;;;5081605;28;20525;-40
2023/10/01 01:38:52;;;;;;;12.10;6.63;;;16.20;57.80;;;;;;5081119;28;20048;-40
2023/10/01 01:41:19;;;;;;;9.50;5.40;;;16.20;57.90;;;;;;5080787;28;20059;-39
2023/10/01 01:43:49;;;;;;;11.63;6.32;;;16.20;57.90;;;;;;5081362;28;20052;-40
2023/10/01 01:46:18;;;;;;;12.52;6.00;;;16.20;57.90;;;;;;5081023;28;20052;-40
2023/10/01 01:48:51;;;;;;;14.20;6.43;;;16.10;57.90;;;;;;5082353;28;20058;-39
2023/10/01 01:51:20;;;;;;;10.10;5.80;;;16.10;58.00;;;;;;5080674;28;21118;-39
2023/10/01 01:53:50;;;;;;;13.07;5.93;;;16.20;58.00;;;;;;5082214;28;20507;-40
2023/10/01 01:56:18;;;;;;;11.93;5.60;;;16.10;58.00;;;;;;5079112;28;20600;-41
2023/10/01 01:58:47;;;;;;;14.15;6.57;;;16.10;58.00;;;;;;5081003;28;20060;-39
2023/10/01 02:01:23;;;;;;;12.27;5.90;;;16.10;58.10;;;;;;5081228;28;20559;-40
2023/10/01 02:03:52;;;;;;;8.52;5.28;;;16.10;58.10;;;;;;5080622;28;20059;-42
2023/10/01 02:06:26;;;;;;;9.85;5.50;;;16.10;58.10;;;;;;5081837;28;20067;-40
2023/10/01 02:08:57;;;;;;;11.02;5.82;;;16.10;58.10;;;;;;5081952;28;20062;-39
2023/10/01 02:11:25;;;;;;;13.43;6.47;;;16.10;58.10;;;;;;5080277;28;20052;-40
2023/10/01 02:13:54;;;;;;;14.30;6.80;;;16.10;58.10;;;;;;5081277;28;20423;-41
2023/10/01 02:16:35;;;;;;;9.68;5.35;;;16.10;58.10;;;;;;5079428;28;20059;-39
2023/10/01 02:19:21;;;;;;;10.55;5.50;;;16.10;58.20;;;;;;5081393;28;20059;-39
2023/10/01 02:21:52;;;;;;;12.32;5.72;;;16.10;58.10;;;;;;5080188;28;20055;-39
2023/10/01 02:24:23;;;;;;;12.73;5.50;;;16.10;58.10;;;;;;5080217;28;20052;-39
2023/10/01 02:26:53;;;;;;;12.05;5.93;;;16.10;58.10;;;;;;5080308;28;20419;-40
2023/10/01 02:29:24;;;;;;;10.07;5.63;;;16.10;58.10;;;;;;5080855;28;20052;-39
2023/10/01 02:31:56;;;;;;;8.70;5.20;;;16.10;58.10;;;;;;5078258;28;20055;-39
2023/10/01 02:34:24;;;;;;;10.68;5.68;;;16.10;58.10;;;;;;5078788;28;20052;-39
2023/10/01 02:36:55;;;;;;;9.85;5.88;;;16.10;58.10;;;;;;5079770;28;20063;-40
2023/10/01 02:39:27;;;;;;;11.60;6.05;;;16.00;58.10;;;;;;5081604;28;20056;-39
2023/10/01 02:42:09;;;;;;;10.77;5.65;;;16.10;58.20;;;;;;5080566;28;20055;-39
2023/10/01 02:44:39;;;;;;;11.90;5.70;;;16.00;58.10;;;;;;5080460;28;20399;-39
2023/10/01 02:47:16;;;;;;;9.73;5.63;;;16.00;58.10;;;;;;5079580;28;20059;-39
2023/10/01 02:49:50;;;;;;;11.85;6.10;;;16.00;58.10;;;;;;5079686;28;20052;-39
2023/10/01 02:52:17;;;;;;;;;;;16.00;58.10;;;;;;5081817;28;20063;-40
2023/10/01 02:54:47;;;;;;;12.43;6.38;;;16.00;58.20;;;;;;5081060;28;20376;-39
2023/10/01 02:57:23;;;;;;;9.45;5.63;;;16.10;58.00;;;;;;5079560;28;20424;-40
2023/10/01 03:00:20;;;;;;;11.70;5.68;;;16.00;58.00;;;;;;5079525;28;20054;-39
2023/10/01 03:02:51;;;;;;;9.35;5.03;;;16.00;58.00;;;;;;5079602;28;20052;-41
2023/10/01 03:05:23;;;;;;;11.43;5.70;;;16.00;58.00;;;;;;5079810;28;20056;-39
2023/10/01 03:07:51;;;;;;;10.63;5.97;;;16.00;58.10;;;;;;5080669;28;20059;-39
2023/10/01 03:10:26;;;;;;;11.82;6.03;;;16.00;58.10;;;;;;5080958;28;20059;-39
2023/10/01 03:12:55;;;;;;;10.05;5.80;;;16.00;58.10;;;;;;5079864;28;20056;-40
2023/10/01 03:15:27;;;;;;;12.10;6.00;;;15.90;58.10;;;;;;5079535;28;20060;-39
2023/10/01 03:17:58;;;;;;;11.95;6.13;;;15.90;58.20;;;;;;5079613;28;20515;-41
2023/10/01 03:23:24;;;;;;;10.27;5.72;;;15.90;58.20;;;;;;5085915;28;20048;-40
2023/10/01 03:26:00;;;;;;;9.30;5.63;;;15.90;58.20;;;;;;5080858;28;20051;-39
2023/10/01 03:28:28;;;;;;;10.20;5.63;;;15.90;58.20;;;;;;5080989;28;20060;-39
2023/10/01 03:31:06;;;;;;;12.80;6.53;;;15.90;58.30;;;;;;5077826;28;20044;-39
2023/10/01 03:33:37;;;;;;;9.73;6.03;;;15.90;58.30;;;;;;5078841;28;20487;-40
2023/10/01 03:36:09;;;;;;;12.07;6.00;;;15.90;58.30;;;;;;5078938;28;20399;-39
2023/10/01 03:38:37;;;;;;;11.68;5.93;;;15.90;58.40;;;;;;5079085;28;20419;-39
2023/10/01 03:41:08;;;;;;;11.50;6.25;;;15.90;58.30;;;;;;5077884;28;20056;-40
2023/10/01 03:43:37;;;;;;;9.98;5.65;;;15.90;58.40;;;;;;5078604;28;20063;-41
2023/10/01 03:46:13;;;;;;;10.93;5.75;;;15.90;58.40;;;;;;5077571;28;20048;-39
2023/10/01 03:49:00;;;;;;;13.15;6.70;;;15.90;58.40;;;;;;5077243;28;20048;-39
2023/10/01 03:54:14;;;;;;;13.48;6.15;;;15.90;58.40;;;;;;5082058;28;20424;-40
2023/10/01 03:56:47;;;;;;;9.23;5.30;;;15.90;58.40;;;;;;5076801;28;20052;-39
2023/10/01 03:59:17;;;;;;;10.95;6.20;;;15.90;58.50;;;;;;5078575;28;20048;-40
2023/10/01 04:01:59;;;;;;;12.75;6.18;;;15.90;58.50;;;;;;5076978;28;20051;-39
2023/10/01 04:04:28;;;;;;;13.38;6.43;;;15.90;58.50;;;;;;5078735;28;20070;-39
2023/10/01 04:06:59;;;;;;;11.50;6.00;;;15.90;58.50;;;;;;5079520;28;20055;-41
2023/10/01 04:09:27;;;;;;;12.15;6.00;;;15.90;58.40;;;;;;5081222;28;20052;-40
2023/10/01 04:12:18;;;;;;;14.63;7.18;;;15.90;58.40;;;;;;5079406;28;20102;-39
2023/10/01 04:14:48;;;;;;;11.77;5.75;;;15.90;58.50;;;;;;5080334;28;20052;-39
2023/10/01 04:17:18;;;;;;;15.02;6.30;;;15.90;58.40;;;;;;5077102;28;20049;-40
2023/10/01 04:19:49;;;;;;;11.85;6.15;;;15.90;58.50;;;;;;5080815;28;20066;-39
2023/10/01 04:22:21;;;;;;;11.52;6.18;;;15.80;58.50;;;;;;5080687;28;20048;-39
2023/10/01 04:25:00;;;;;;;15.80;6.60;;;15.90;58.50;;;;;;5079261;28;20052;-40
2023/10/01 04:27:34;;;;;;;14.15;6.60;;;15.80;58.40;;;;;;5081082;28;20423;-41
2023/10/01 04:30:07;;;;;;;14.27;7.38;;;15.80;58.40;;;;;;5079984;28;20083;-39
2023/10/01 04:32:36;;;;;;;12.93;6.35;;;15.90;58.40;;;;;;5080117;28;20416;-40
2023/10/01 04:35:14;;;;;;;13.55;6.88;;;15.90;58.40;;;;;;5080473;28;20056;-39
2023/10/01 04:37:42;;;;;;;12.27;6.78;;;15.90;58.40;;;;;;5081822;28;20056;-39
2023/10/01 04:42:53;;;;;;;12.43;6.30;;;15.80;58.30;;;;;;5079247;28;20052;-40
2023/10/01 04:45:24;;;;;;;12.93;6.90;;;15.80;58.40;;;;;;5080356;28;20048;-40
2023/10/01 04:47:55;;;;;;;14.80;8.10;;;15.80;58.40;;;;;;5077584;28;20526;-40
2023/10/01 04:50:27;;;;;;;12.15;6.88;;;15.80;58.40;;;;;;5079496;28;20059;-39
2023/10/01 04:52:59;;;;;;;11.85;6.80;;;15.80;58.40;;;;;;5081601;28;20055;-39
2023/10/01 04:55:28;;;;;;;14.32;7.13;;;15.80;58.40;;;;;;5081112;28;20048;-39
2023/10/01 04:57:57;;;;;;;12.23;7.60;;;15.80;58.40;;;;;;5080888;28;20048;-39
2023/10/01 05:00:26;;;;;;;15.90;7.45;;;15.80;58.40;;;;;;5081051;28;20064;-39
2023/10/01 05:02:54;;;;;;;13.20;6.57;;;15.80;58.50;;;;;;5083618;28;20044;-39
2023/10/01 05:05:26;;;;;;;14.88;7.28;;;15.70;58.50;;;;;;5083857;28;20066;-40
2023/10/01 05:07:57;;;;;;;12.52;7.15;;;15.80;58.50;;;;;;5084735;28;20419;-40
2023/10/01 05:10:26;;;;;;;14.02;7.30;;;15.80;58.50;;;;;;5083792;28;20076;-40
2023/10/01 05:12:58;;;;;;;10.18;6.03;;;15.70;58.40;;;;;;5083960;28;20056;-40
2023/10/01 05:15:31;;;;;;;12.48;6.30;;;15.70;58.40;;;;;;5082384;28;20059;-42
2023/10/01 05:17:59;;;;;;;13.18;7.47;;;15.70;58.50;;;;;;5083286;28;20051;-39
2023/10/01 05:20:26;;;;;;;12.25;7.45;;;15.70;58.40;;;;;;5082813;28;20068;-40
2023/10/01 05:22:54;;;;;;;14.18;7.05;;;15.70;58.40;;;;;;5083389;28;20510;-40
2023/10/01 05:25:24;;;;;;;19.65;10.40;;;15.70;58.40;;;;;;5083898;28;20052;-38
2023/10/01 05:27:54;;;;;;;19.30;9.70;;;15.70;58.40;;;;;;5081704;28;20071;-39
2023/10/01 05:30:39;;;;;;;17.85;8.68;;;15.70;58.40;;;;;;5083688;28;20063;-39
2023/10/01 05:33:11;;;;;;;14.52;7.10;;;15.70;58.50;;;;;;5082194;28;20399;-39
2023/10/01 05:35:41;;;;;;;12.93;7.40;;;15.70;58.50;;;;;;5082476;28;20052;-40
2023/10/01 05:38:10;;;;;;;11.68;7.15;;;15.70;58.50;;;;;;5084995;28;20063;-39
2023/10/01 05:40:40;;;;;;;11.10;6.82;;;15.70;58.50;;;;;;5084136;28;20063;-39
2023/10/01 05:43:13;;;;;;;14.38;7.43;;;15.70;58.40;;;;;;5082743;28;20522;-39
2023/10/01 05:45:41;;;;;;;12.68;7.38;;;15.70;58.50;;;;;;5081560;28;20052;-40
2023/10/01 05:48:11;;;;;;;13.93;7.75;;;15.70;58.50;;;;;;5082061;28;20071;-39
2023/10/01 05:50:41;;;;;;;14.30;7.50;;;15.70;58.40;;;;;;5083176;28;20049;-39
2023/10/01 05:53:09;;;;;;;13.02;7.28;;;15.70;58.50;;;;;;5084110;28;20052;-41
2023/10/01 05:55:38;;;;;;;17.75;6.47;;;15.70;58.40;;;;;;5082938;28;20052;-41
2023/10/01 05:58:16;;;;;;;13.07;6.68;;;15.70;58.50;;;;;;5082145;28;21528;-40
2023/10/01 06:00:46;;;;;;;11.75;6.85;;;15.70;58.60;;;;;;5079948;28;20048;-39
2023/10/01 06:03:16;;;;;;;12.45;6.80;;;15.70;58.60;;;;;;5080255;28;20048;-40
2023/10/01 06:05:50;;;;;;;13.75;7.18;;;15.60;58.60;;;;;;5081957;28;20055;-40
2023/10/01 06:08:24;;;;;;;11.88;6.50;;;15.70;58.60;;;;;;5082979;28;20060;-40
2023/10/01 06:11:05;;;;;;;11.43;6.32;;;15.70;58.60;;;;;;5082853;28;20048;-41
2023/10/01 06:13:35;;;;;;;12.30;6.50;;;15.60;58.50;;;;;;5082400;28;20059;-39
2023/10/01 06:16:11;;;;;;;10.40;6.30;;;15.70;58.50;;;;;;5080841;28;20051;-39
2023/10/01 06:18:49;;;;;;;9.98;5.97;;;15.60;58.50;;;;;;5081861;28;20052;-39
2023/10/01 06:21:18;;;;;;;12.85;6.25;;;15.70;58.60;;;;;;5080044;28;20419;-35
2023/10/01 06:23:50;;;;;;;9.00;5.40;;;15.70;58.60;;;;;;5080631;28;20051;-36
2023/10/01 06:26:19;;;;;;;10.85;6.10;;;15.70;58.70;;;;;;5081604;28;20056;-36
2023/10/01 06:28:46;;;;;;;10.93;5.70;;;15.70;58.70;;;;;;5083217;28;20060;-36
2023/10/01 06:31:16;;;;;;;10.15;6.07;;;15.70;58.70;;;;;;5081838;28;20051;-35
2023/10/01 06:33:45;;;;;;;8.02;5.25;;;15.70;58.80;;;;;;5080112;28;20048;-36
2023/10/01 06:36:21;;;;;;;8.95;5.10;;;15.70;58.90;;;;;;5079945;28;20056;-37
2023/10/01 06:38:49;;;;;;;8.18;5.40;;;15.70;58.80;;;;;;5081481;28;20063;-37
2023/10/01 06:41:18;;;;;;;9.45;5.15;;;15.70;58.90;;;;;;5082230;28;20477;-35
2023/10/01 06:43:54;;;;;;;8.02;5.25;;;15.70;58.90;;;;;;5081899;28;20520;-37
2023/10/01 06:46:23;;;;;;;8.35;5.18;;;15.80;58.90;;;;;;5079577;28;20056;-36
2023/10/01 06:48:54;;;;;;;8.98;4.95;;;15.80;58.90;;;;;;5080722;28;20071;-36
2023/10/01 06:51:22;;;;;;;8.40;5.18;;;15.80;59.00;;;;;;5080894;28;20051;-36
2023/10/01 06:53:53;;;;;;;11.30;5.53;;;15.80;59.00;;;;;;5081970;28;20705;-36
2023/10/01 06:56:21;;;;;;;9.65;5.03;;;15.80;59.00;;;;;;5081287;28;20865;-35
2023/10/01 06:59:13;;;;;;;8.02;4.93;;;15.80;59.00;;;;;;5081420;28;20419;-35
2023/10/01 07:01:47;;;;;;;9.80;5.47;;;15.80;59.10;;;;;;5079929;28;20048;-38
2023/10/01 07:04:17;;;;;;;;;;;15.90;59.20;;;;;;5081782;28;20059;-35
2023/10/01 07:06:45;;;;;;;9.82;5.07;;;15.90;59.30;;;;;;5080060;28;19927;-35
2023/10/01 07:09:27;;;;;;;9.60;5.40;;;16.00;59.10;;;;;;5081876;28;20084;-35
2023/10/01 07:11:57;;;;;;;8.82;4.88;;;16.00;59.20;;;;;;5079756;28;20051;-36
2023/10/01 07:14:44;;;;;;;8.02;4.68;;;16.00;59.30;;;;;;5081487;28;20060;-36
2023/10/01 07:17:14;;;;;;;10.43;5.18;;;16.00;59.40;;;;;;5081905;28;20542;-36
2023/10/01 07:19:45;;;;;;;8.50;4.97;;;16.10;59.40;;;;;;5081542;28;20055;-36
2023/10/01 07:22:14;;;;;;;9.00;5.35;;;16.10;59.50;;;;;;5080564;28;20064;-36
2023/10/01 07:24:41;;;;;;;9.27;5.25;;;16.10;59.60;;;;;;5079732;28;20056;-39
2023/10/01 07:27:11;;;;;;;8.85;4.90;;;16.10;59.60;;;;;;5076314;28;20044;-36
2023/10/01 07:29:41;;;;;;;9.25;5.13;;;16.20;59.70;;;;;;5079634;28;20059;-35
2023/10/01 07:32:12;;;;;;;10.60;5.25;;;16.20;59.80;;;;;;5080867;28;20052;-36
2023/10/01 07:34:40;;;;;;;9.18;4.93;;;16.30;59.80;;;;;;5080466;28;20427;-37
2023/10/01 07:37:09;;;;;;;10.15;5.40;;;16.30;59.80;;;;;;5081064;28;20055;-35
2023/10/01 07:39:37;;;;;;;10.15;5.03;;;16.30;59.90;;;;;;5081619;28;20052;-35
2023/10/01 07:42:05;;;;;;;9.30;5.05;;;16.40;59.90;;;;;;5079069;28;20044;-35
2023/10/01 07:44:35;;;;;;;7.85;4.72;;;16.40;59.90;;;;;;5081907;28;20052;-37
2023/10/01 07:47:03;;;;;;;10.43;4.80;;;16.50;60.00;;;;;;5079680;28;20480;-35
2023/10/01 07:49:46;;;;;;;10.77;5.10;;;16.50;59.90;;;;;;5078526;28;20177;-38
2023/10/01 07:52:18;;;;;;;8.82;4.50;;;16.60;60.00;;;;;;5079658;28;20048;-36
2023/10/01 07:54:48;;;;;;;8.38;4.50;;;16.60;60.00;;;;;;5079936;28;20384;-36
2023/10/01 07:57:17;;;;;;;9.05;5.00;;;16.60;60.00;;;;;;5080000;28;20044;-36
2023/10/01 07:59:46;;;;;;;12.75;5.22;;;16.70;60.10;;;;;;5080876;28;20055;-36
2023/10/01 08:02:21;;;;;;;9.20;4.90;;;16.70;60.10;;;;;;5079068;28;20071;-38
2023/10/01 08:04:57;;;;;;;9.38;4.25;;;16.80;60.20;;;;;;5079989;28;20063;-37
2023/10/01 08:07:30;;;;;;;10.13;5.28;;;16.80;60.10;;;;;;5081807;28;20063;-35
2023/10/01 08:09:59;;;;;;;11.65;5.28;;;16.90;60.20;;;;;;5081122;28;20048;-38
2023/10/01 08:12:48;;;;;;;9.27;5.00;;;16.90;60.30;;;;;;5080512;28;20048;-37
2023/10/01 08:15:31;;;;;;;10.00;4.90;;;17.00;60.40;;;;;;5081624;28;20484;-35
2023/10/01 08:18:19;;;;;;;10.05;4.80;;;17.10;60.30;;;;;;5080786;28;20056;-36
2023/10/01 08:20:56;;;;;;;12.80;5.13;;;17.10;60.30;;;;;;5080072;28;20056;-35
2023/10/01 08:23:26;;;;;;;9.20;5.13;;;17.20;60.40;;;;;;5081936;28;20052;-37
2023/10/01 08:25:55;;;;;;;10.20;4.80;;;17.20;60.50;;;;;;5081236;28;20044;-37
2023/10/01 08:28:43;;;;;;;9.38;4.63;;;17.30;60.60;;;;;;5081168;28;20056;-36
2023/10/01 08:36:45;;;;;;;9.80;4.82;;;17.50;60.80;;;;;;5080538;28;20044;-36
2023/10/01 08:39:33;;;;;;;10.13;5.22;;;17.50;60.80;;;;;;5083294;28;20497;-35
2023/10/01 08:42:08;;;;;;;12.18;4.95;;;17.60;61.00;;;;;;5083908;28;20551;-38
2023/10/01 08:44:45;;;;;;;9.07;5.05;;;17.60;61.00;;;;;;5082231;28;20057;-37
2023/10/01 08:47:27;;;;;;;9.07;5.03;;;17.70;61.60;;;;;;5081392;28;20110;-35
2023/10/01 08:50:15;;;;;;;8.88;4.68;;;17.80;61.30;;;;;;5080745;28;20059;-35
2023/10/01 08:52:52;;;;;;;11.05;4.88;;;17.90;61.30;;;;;;5080568;28;20488;-36
2023/10/01 08:55:24;;;;;;;15.15;5.85;;;17.90;61.30;;;;;;5081943;28;20063;-37
2023/10/01 08:57:53;;;;;;;12.55;5.57;;;18.00;61.20;;;;;;5082221;28;20404;-35
2023/10/01 09:00:24;;;;;;;10.13;4.65;;;18.10;61.30;;;;;;5083249;28;20055;-36
2023/10/01 09:02:52;;;;;;;10.68;5.75;;;18.10;61.30;;;;;;5081364;28;20514;-36
2023/10/01 09:05:24;;;;;;;12.18;5.22;;;18.20;61.50;;;;;;5080449;28;20056;-36
2023/10/01 09:08:14;;;;;;;11.20;4.88;;;18.20;61.60;;;;;;5084133;28;20510;-36
2023/10/01 09:10:51;;;;;;;10.68;5.35;;;18.30;61.80;;;;;;5082387;28;20427;-36
2023/10/01 09:27:11;;;;;;;11.60;5.47;;;18.80;62.10;;;;;;5089073;28;20407;-36
2023/10/01 09:29:44;;;;;;;14.02;5.97;;;18.80;61.80;;;;;;5080452;28;20060;-35
2023/10/01 09:32:13;;;;;;;14.77;6.22;;;18.90;61.90;;;;;;5079519;28;20048;-36
2023/10/01 09:34:47;;;;;;;13.00;5.88;;;19.00;61.90;;;;;;5079133;28;20082;-37
2023/10/01 09:37:33;;;;;;;12.35;5.90;;;19.00;61.80;;;;;;5081443;28;20071;-37
2023/10/01 09:40:13;;;;;;;14.68;6.13;;;19.10;61.80;;;;;;5080873;28;20519;-36
2023/10/01 09:42:56;;;;;;;11.60;5.65;;;19.20;61.80;;;;;;5078078;28;20059;-37
2023/10/01 09:45:27;;;;;;;13.48;6.47;;;19.20;61.90;;;;;;5077821;28;20056;-38
2023/10/01 09:48:09;;;;;;;16.70;6.65;;;19.30;61.90;;;;;;5080634;28;20060;-38
2023/10/01 09:50:41;;;;;;;13.80;6.15;;;19.40;61.90;;;;;;5080448;28;20063;-35
2023/10/01 09:53:14;;;;;;;13.02;6.50;;;19.50;61.80;;;;;;5080656;28;20052;-35
2023/10/01 09:55:47;;;;;;;14.18;6.75;;;19.50;61.90;;;;;;5081099;28;20056;-35
2023/10/01 09:58:20;;;;;;;15.48;6.88;;;19.60;62.00;;;;;;5080910;28;20054;-36
2023/10/01 10:00:50;;;;;;;16.65;6.30;;;19.70;62.00;;;;;;5081491;28;20455;-36
2023/10/01 10:03:19;;;;;;;14.18;6.68;;;19.80;61.60;;;;;;5078576;28;20507;-36
2023/10/01 10:05:46;;;;;;;13.75;6.88;;;19.80;61.50;;;;;;5079805;28;20412;-37
2023/10/01 10:08:15;;;;;;;13.77;6.53;;;19.90;61.40;;;;;;5081366;28;20052;-35
2023/10/01 10:10:48;;;;;;;18.10;7.43;;;19.90;61.30;;;;;;5078585;28;20051;-36
2023/10/01 10:13:36;;;;;;;16.13;6.93;;;20.00;61.20;;;;;;5081521;28;20059;-36
2023/10/01 10:16:28;;;;;;;19.25;7.70;;;20.10;60.70;;;;;;5078250;28;20048;-36
2023/10/01 10:19:12;;;;;;;14.35;7.10;;;20.20;60.70;;;;;;5080071;28;20048;-37
2023/10/01 10:22:11;;;;;;;14.48;7.20;;;20.20;60.00;;;;;;5077837;28;20044;-36
2023/10/01 10:24:45;;;;;;;14.93;7.05;;;20.30;59.90;;;;;;5080797;28;20051;-37
2023/10/01 10:27:17;;;;;;;14.10;6.40;;;20.40;59.90;;;;;;5073876;28;20056;-38
2023/10/01 10:30:15;;;;;;;15.32;6.72;;;20.50;59.90;;;;;;5078183;28;20508;-38
2023/10/01 10:36:58;;;;;;;14.88;6.88;;;20.60;59.90;;;;;;5077823;28;20503;-36
2023/10/01 10:40:04;;;;;;;15.00;7.32;;;20.70;59.70;;;;;;5079068;28;20052;-37
2023/10/01 10:42:33;;;;;;;22.48;10.70;;;20.70;59.40;;;;;;5079868;28;21000;-36
2023/10/01 10:45:21;;;;;;;28.08;9.90;;;20.80;59.20;;;;;;5080483;28;20052;-35
2023/10/01 10:48:02;;;;;;;18.45;8.38;;;20.90;58.40;;;;;;5079819;28;20400;-35
2023/10/01 10:50:44;;;;;;;19.98;8.07;;;21.00;58.10;;;;;;5079273;28;20048;-36
2023/10/01 10:53:19;;;;;;;20.50;8.25;;;21.00;58.00;;;;;;5076655;28;20047;-37
2023/10/01 10:56:00;;;;;;;15.70;7.30;;;21.00;58.10;;;;;;5079576;28;20048;-38
2023/10/01 10:58:29;;;;;;;18.55;8.10;;;21.10;57.90;;;;;;5079596;28;20040;-39
2023/10/01 11:01:15;;;;;;;18.15;8.02;;;21.20;58.10;;;;;;5079397;28;20048;-35
2023/10/01 11:03:43;;;;;;;15.13;7.15;;;21.30;58.00;;;;;;5077977;28;20488;-36
2023/10/01 11:06:18;;;;;;;17.60;7.93;;;21.30;57.80;;;;;;5079336;28;20074;-38
2023/10/01 11:08:51;;;;;;;25.65;9.23;;;21.40;57.40;;;;;;5080303;28;20056;-35
2023/10/01 11:11:29;;;;;;;21.85;9.48;;;21.50;57.10;;;;;;5077681;28;20060;-36
2023/10/01 11:14:03;;;;;;;19.15;8.38;;;21.50;56.90;;;;;;5078127;28;20717;-36
2023/10/01 11:16:37;;;;;;;17.13;8.20;;;21.60;56.80;;;;;;5078509;28;20067;-36
2023/10/01 11:19:13;;;;;;;16.67;8.13;;;21.70;56.40;;;;;;5079481;28;20043;-36
2023/10/01 11:21:58;;;;;;;17.55;7.68;;;21.70;56.60;;;;;;5079091;28;20059;-36
2023/10/01 11:24:29;;;;;;;16.33;7.55;;;21.80;56.70;;;;;;5079761;28;20058;-36
2023/10/01 11:27:17;;;;;;;18.77;7.43;;;21.90;56.80;;;;;;5081490;28;20126;-38
2023/10/01 11:29:44;;;;;;;18.02;7.57;;;21.90;56.80;;;;;;5078828;28;20526;-36
2023/10/01 11:32:16;;;;;;;14.90;7.28;;;22.00;57.00;;;;;;5077337;28;20056;-37
2023/10/01 11:34:45;;;;;;;14.90;7.15;;;22.00;56.90;;;;;;5078338;28;20419;-36
2023/10/01 11:37:17;;;;;;;16.15;7.32;;;22.10;56.70;;;;;;5077774;28;20542;-36
2023/10/01 11:39:50;;;;;;;16.67;8.20;;;22.10;56.50;;;;;;5078799;28;20048;-35
2023/10/01 11:42:35;;;;;;;15.00;6.97;;;22.20;56.50;;;;;;5079301;28;20059;-38
2023/10/01 11:45:28;;;;;;;16.02;7.35;;;22.20;56.10;;;;;;5076563;28;20055;-36
2023/10/01 11:48:06;;;;;;;16.73;7.00;;;22.20;55.80;;;;;;5077591;28;20052;-36
2023/10/01 11:50:49;;;;;;;16.35;7.47;;;22.30;55.90;;;;;;5077680;28;20059;-35
2023/10/01 11:53:28;;;;;;;15.65;7.28;;;22.30;55.70;;;;;;5075330;28;20055;-37
2023/10/01 11:56:01;;;;;;;15.60;7.25;;;22.30;55.50;;;;;;5078079;28;20059;-36
2023/10/01 11:58:28;;;;;;;17.85;8.30;;;22.40;55.50;;;;;;5078976;28;20400;-36
2023/10/01 12:00:59;;;;;;;16.13;7.00;;;22.40;55.40;;;;;;5076295;28;20055;-36
2023/10/01 12:03:27;;;;;;;18.35;8.60;;;22.40;55.30;;;;;;5077499;28;20075;-37
2023/10/01 12:05:56;;;;;;;15.95;8.05;;;22.40;55.20;;;;;;5079080;28;20062;-37
2023/10/01 12:08:35;;;;;;;19.90;8.45;;;22.50;55.30;;;;;;5075714;28;20056;-37
2023/10/01 12:11:26;;;;;;;17.63;8.10;;;22.40;55.30;;;;;;5079276;28;20052;-36
2023/10/01 12:14:05;;;;;;;18.58;8.32;;;22.50;55.30;;;;;;5081889;28;20416;-37
2023/10/01 12:16:34;;;;;;;15.95;7.95;;;22.50;55.10;;;;;;5081068;28;20056;-36
2023/10/01 12:21:44;;;;;;;21.77;8.20;;;22.50;54.80;;;;;;5082615;28;20062;-36
2023/10/01 12:24:13;;;;;;;16.80;7.68;;;22.60;54.70;;;;;;5085103;28;20514;-36
2023/10/01 12:26:43;;;;;;;21.50;8.13;;;22.50;54.50;;;;;;5078024;28;21252;-36
2023/10/01 12:29:13;;;;;;;15.57;7.65;;;22.60;54.60;;;;;;5077193;28;20048;-36
2023/10/01 12:31:44;;;;;;;16.90;7.57;;;22.50;54.70;;;;;;5083464;28;20048;-36
2023/10/01 12:34:13;;;;;;;16.90;7.60;;;22.60;54.70;;;;;;5081908;28;20984;-36
2023/10/01 12:36:44;;;;;;;17.00;8.10;;;22.60;54.50;;;;;;5081867;28;20048;-36
2023/10/01 12:39:19;;;;;;;16.48;7.95;;;22.70;54.50;;;;;;5084309;28;20047;-36
2023/10/01 12:41:56;;;;;;;14.80;7.60;;;22.60;54.50;;;;;;5082320;28;20056;-35
2023/10/01 12:44:28;;;;;;;16.73;7.85;;;22.70;54.60;;;;;;5082651;28;20052;-35
2023/10/01 12:46:55;;;;;;;17.20;7.90;;;22.70;54.70;;;;;;5080835;28;20510;-36
2023/10/01 12:49:23;;;;;;;15.48;7.57;;;22.70;54.70;;;;;;5080785;28;20051;-36
2023/10/01 12:51:53;;;;;;;15.25;7.40;;;22.80;54.50;;;;;;5081496;28;20079;-36
2023/10/01 12:54:24;;;;;;;18.85;8.15;;;22.80;54.40;;;;;;5082552;28;20048;-36
2023/10/01 12:57:02;;;;;;;18.35;8.02;;;22.80;54.40;;;;;;5081297;28;20051;-37
2023/10/01 12:59:38;;;;;;;16.02;7.75;;;22.90;54.60;;;;;;5080875;28;20157;-37
2023/10/01 13:02:20;;;;;;;15.55;7.28;;;22.90;54.50;;;;;;5079574;28;20064;-37
2023/10/01 13:04:50;;;;;;;12.82;6.53;;;22.90;54.40;;;;;;5078251;28;20059;-38
2023/10/01 13:07:34;;;;;;;17.02;7.70;;;22.90;54.60;;;;;;5082284;28;20059;-36
2023/10/01 13:10:05;;;;;;;14.32;6.90;;;23.00;54.50;;;;;;5080393;28;20062;-36
2023/10/01 13:12:38;;;;;;;17.45;7.32;;;23.00;54.70;;;;;;5082037;28;20052;-36
2023/10/01 13:15:16;;;;;;;13.38;6.22;;;23.00;54.60;;;;;;5079946;28;20056;-36
2023/10/01 13:17:44;;;;;;;14.23;6.45;;;23.10;54.60;;;;;;5077911;28;20052;-36
2023/10/01 13:20:22;;;;;;;17.67;7.88;;;23.10;54.60;;;;;;5079685;28;20051;-38
2023/10/01 13:22:51;;;;;;;15.93;7.35;;;23.10;54.50;;;;;;5079171;28;21653;-36
2023/10/01 13:25:20;;;;;;;19.35;8.57;;;23.20;54.40;;;;;;5081126;28;20079;-35
2023/10/01 13:27:48;;;;;;;18.63;7.63;;;23.20;54.20;;;;;;5082250;28;20055;-36
2023/10/01 13:30:22;;;;;;;16.15;7.68;;;23.20;54.10;;;;;;5082391;28;20059;-37
2023/10/01 13:33:13;;;;;;;13.07;6.70;;;23.30;54.00;;;;;;5078768;28;20051;-36
2023/10/01 13:35:52;;;;;;;15.15;7.97;;;23.30;54.00;;;;;;5079006;28;20526;-37
2023/10/01 13:38:52;;;;;;;18.55;7.80;;;23.30;54.00;;;;;;5082896;28;20048;-36
2023/10/01 14:08:51;;;;;;;18.17;8.35;;;23.60;53.40;;;;;;5087505;28;20071;-36
2023/10/01 14:11:26;;;;;;;15.45;7.78;;;23.60;53.40;;;;;;5081530;28;20048;-36